Time;durP1;ratioP1;P1;durP2;ratioP2;P2;SDS_P1;SDS_P2;PMS_P1;PMS_P2;Temp;Humidity;BMP_temperature;BMP_pressure;BME280_temperature;BME280_humidity;BME280_pressure;Samples;Min_cycle;Max_cycle;Signal;HPM_P1;HPM_P2
2022/03/04 00:00:21;;;;;;;13.57;12.00;;;;;;;19.26;34.59;100765.28;5072314;28;20045;-84
2022/03/04 00:02:49;;;;;;;12.40;11.10;;;;;;;19.25;34.50;100764.44;5073510;28;20053;-84
2022/03/04 00:05:16;;;;;;;13.43;11.20;;;;;;;19.25;34.80;100771.63;5072442;28;20044;-84
2022/03/04 00:07:44;;;;;;;14.43;11.57;;;;;;;19.26;34.60;100762.59;5072073;28;20053;-84
2022/03/04 00:10:11;;;;;;;14.18;11.00;;;;;;;19.25;34.53;100769.81;5073527;28;20048;-84
2022/03/04 00:12:38;;;;;;;14.52;10.32;;;;;;;19.26;34.70;100760.75;5073047;28;20049;-84
2022/03/04 00:15:06;;;;;;;14.38;11.82;;;;;;;19.26;34.56;100763.44;5071866;28;20052;-84
2022/03/04 00:17:34;;;;;;;13.85;10.60;;;;;;;19.27;34.60;100766.97;5072920;28;20499;-84
2022/03/04 00:20:01;;;;;;;12.30;10.45;;;;;;;19.26;34.71;100763.44;5072973;28;20047;-84
2022/03/04 00:22:28;;;;;;;13.38;10.93;;;;;;;19.27;34.68;100762.44;5073445;28;20046;-84
2022/03/04 00:24:56;;;;;;;12.13;10.80;;;;;;;19.26;34.72;100759.91;5071867;28;20440;-84
2022/03/04 00:27:23;;;;;;;15.45;10.82;;;;;;;19.27;34.44;100772.34;5074067;28;20051;-84
2022/03/04 00:29:51;;;;;;;11.57;10.40;;;;;;;19.27;34.64;100769.66;5077419;28;20044;-84
2022/03/04 00:32:18;;;;;;;16.05;10.38;;;;;;;19.27;34.65;100781.25;5075807;28;20052;-83
2022/03/04 00:34:46;;;;;;;11.90;10.68;;;;;;;19.26;34.76;100779.53;5077005;28;20043;-83
2022/03/04 00:37:13;;;;;;;12.18;9.70;;;;;;;19.27;34.74;100783.06;5076244;28;20041;-84
2022/03/04 00:39:40;;;;;;;13.38;10.63;;;;;;;19.26;34.98;100786.75;5076567;28;20052;-83
2022/03/04 00:42:08;;;;;;;12.98;9.73;;;;;;;19.26;34.92;100784.91;5076968;28;20048;-83
2022/03/04 00:44:35;;;;;;;11.82;10.00;;;;;;;19.26;34.78;100784.06;5075700;28;20048;-83
2022/03/04 00:47:05;;;;;;;12.18;10.50;;;;;;;19.26;34.84;100795.66;5077091;28;20529;-84
2022/03/04 00:49:33;;;;;;;15.63;9.50;;;;;;;19.26;34.83;100795.66;5076420;28;20045;-83
2022/03/04 00:52:01;;;;;;;11.23;10.02;;;;;;;19.26;34.97;100787.59;5076425;28;20051;-83
2022/03/04 00:54:28;;;;;;;11.63;10.43;;;;;;;19.26;34.85;100794.81;5076360;28;20064;-83
2022/03/04 00:56:55;;;;;;;11.85;10.10;;;;;;;19.27;34.83;100793.81;5076957;28;20055;-83
2022/03/04 00:59:23;;;;;;;13.18;10.32;;;;;;;19.27;35.11;100799.19;5077253;28;20048;-83
2022/03/04 01:01:53;;;;;;;13.07;10.98;;;;;;;19.26;34.91;100795.66;5059544;28;20504;-83
2022/03/04 01:04:21;;;;;;;12.52;10.77;;;;;;;19.26;34.76;100797.50;5075163;28;20411;-83
2022/03/04 01:06:48;;;;;;;12.75;10.35;;;;;;;19.25;34.64;100793.97;5076722;28;20047;-83
2022/03/04 01:09:16;;;;;;;12.57;10.75;;;;;;;19.27;34.58;100794.66;5076761;28;20044;-83
2022/03/04 01:11:43;;;;;;;12.88;10.98;;;;;;;19.26;34.67;100798.34;5076273;28;20040;-83
2022/03/04 01:14:11;;;;;;;12.32;10.75;;;;;;;19.26;34.63;100802.84;5076159;28;20048;-83
2022/03/04 01:16:38;;;;;;;12.15;10.85;;;;;;;19.27;34.79;100818.81;5076816;28;20051;-83
2022/03/04 01:19:06;;;;;;;11.95;10.60;;;;;;;19.26;34.57;100816.28;5076498;28;20063;-83
2022/03/04 01:21:34;;;;;;;13.95;11.27;;;;;;;19.26;34.82;100810.91;5076765;28;20040;-83
2022/03/04 01:24:02;;;;;;;12.38;10.30;;;;;;;19.25;34.69;100811.91;5076440;28;20049;-83
2022/03/04 01:26:30;;;;;;;12.30;10.55;;;;;;;19.25;34.63;100815.44;5074111;28;20052;-83
2022/03/04 01:28:57;;;;;;;12.30;11.00;;;;;;;19.25;34.72;100815.44;5076156;28;20049;-82
2022/03/04 01:31:25;;;;;;;11.75;10.55;;;;;;;19.25;34.63;100807.38;5075848;28;20519;-83
2022/03/04 01:33:52;;;;;;;12.02;10.82;;;;;;;19.25;34.58;100804.69;5074611;28;20052;-82
2022/03/04 01:36:20;;;;;;;16.00;12.05;;;;;;;19.25;34.64;100802.00;5074389;28;20192;-83
2022/03/04 01:38:47;;;;;;;14.57;12.23;;;;;;;19.24;34.56;100803.00;5075362;28;20049;-83
2022/03/04 01:41:14;;;;;;;12.60;11.27;;;;;;;19.25;34.65;100802.00;5076119;28;20365;-83
2022/03/04 01:43:42;;;;;;;14.18;11.70;;;;;;;19.26;34.35;100800.19;5075611;28;20052;-83
2022/03/04 01:46:16;;;;;;;13.98;12.05;;;;;;;19.26;34.36;100801.03;5075768;28;20472;-84
2022/03/04 01:48:46;;;;;;;13.07;11.77;;;;;;;19.27;34.53;100800.03;5075919;28;20110;-83
2022/03/04 01:51:14;;;;;;;14.38;11.88;;;;;;;19.26;34.30;100806.38;5076130;28;20041;-83
2022/03/04 01:53:42;;;;;;;13.70;11.63;;;;;;;19.27;34.43;100801.88;5075196;28;20488;-83
2022/03/04 01:56:09;;;;;;;12.70;11.13;;;;;;;19.26;34.34;100811.75;5075364;28;20507;-84
2022/03/04 01:58:36;;;;;;;16.85;11.20;;;;;;;19.27;34.49;100809.91;5075810;28;20045;-84
2022/03/04 02:01:05;;;;;;;11.80;10.60;;;;;;;19.27;34.52;100805.41;5074133;28;20051;-84
2022/03/04 02:03:33;;;;;;;12.40;11.15;;;;;;;19.27;34.47;100810.75;5075335;28;20045;-84
2022/03/04 02:06:00;;;;;;;13.40;11.52;;;;;;;19.27;34.64;100810.75;5075735;28;20061;-84
2022/03/04 02:08:28;;;;;;;14.25;11.93;;;;;;;19.27;34.71;100810.75;5075789;28;20481;-84
2022/03/04 02:10:56;;;;;;;13.60;10.93;;;;;;;19.28;34.67;100806.25;5075532;28;20053;-84
2022/03/04 02:13:24;;;;;;;13.25;11.95;;;;;;;19.27;34.70;100810.75;5075012;28;20041;-83
2022/03/04 02:15:51;;;;;;;13.07;11.23;;;;;;;19.29;34.79;100807.13;5074854;28;20047;-83
2022/03/04 02:18:18;;;;;;;12.07;10.85;;;;;;;19.27;34.75;100810.75;5074942;28;20051;-83
2022/03/04 02:20:48;;;;;;;12.35;11.05;;;;;;;19.28;34.86;100806.25;5075241;28;20047;-82
2022/03/04 02:23:16;;;;;;;14.15;12.55;;;;;;;19.27;34.64;100816.13;5074808;28;20044;-84
2022/03/04 02:25:49;;;;;;;12.85;11.40;;;;;;;19.29;34.39;100817.84;5075129;28;20044;-84
2022/03/04 02:28:19;;;;;;;12.35;11.15;;;;;;;19.27;34.70;100818.81;5075490;28;20055;-84
2022/03/04 02:30:46;;;;;;;13.35;11.95;;;;;;;19.27;34.63;100821.50;5075057;28;20044;-84
2022/03/04 02:33:13;;;;;;;12.40;11.20;;;;;;;19.29;34.47;100831.28;5074839;28;20045;-83
2022/03/04 02:35:41;;;;;;;12.05;10.85;;;;;;;19.27;34.74;100826.88;5075315;28;20396;-84
2022/03/04 02:38:09;;;;;;;13.07;11.40;;;;;;;19.29;34.56;100831.28;5074561;28;20096;-84
2022/03/04 02:40:37;;;;;;;14.52;12.20;;;;;;;19.28;34.64;100830.41;5075460;28;20044;-83
2022/03/04 02:43:04;;;;;;;13.35;11.95;;;;;;;19.29;34.57;100839.34;5073299;28;20052;-84
2022/03/04 02:45:32;;;;;;;14.80;11.35;;;;;;;19.28;34.78;100838.44;5074250;28;20377;-84
2022/03/04 02:48:00;;;;;;;12.45;11.13;;;;;;;19.28;34.60;100838.44;5074733;28;20048;-83
2022/03/04 02:50:27;;;;;;;13.45;12.05;;;;;;;19.29;34.84;100840.19;5074843;28;20051;-84
2022/03/04 02:52:56;;;;;;;12.60;11.27;;;;;;;19.29;34.83;100839.34;5074420;28;20061;-84
2022/03/04 02:55:24;;;;;;;12.93;11.52;;;;;;;19.30;34.78;100847.25;5074831;28;20483;-83
2022/03/04 02:57:51;;;;;;;11.50;10.40;;;;;;;19.29;34.72;100850.91;5074068;28;20476;-83
2022/03/04 03:00:18;;;;;;;12.40;11.10;;;;;;;19.29;34.62;100847.38;5074102;28;20489;-83
2022/03/04 03:02:46;;;;;;;12.68;11.27;;;;;;;19.30;34.72;100851.75;5074010;28;20041;-83
2022/03/04 03:05:13;;;;;;;12.27;10.93;;;;;;;19.30;34.70;100854.44;5074174;28;20044;-83
2022/03/04 03:07:41;;;;;;;14.85;10.57;;;;;;;19.30;34.78;100855.28;5074659;28;20044;-83
2022/03/04 03:10:10;;;;;;;11.80;10.60;;;;;;;19.30;34.79;100857.13;5072754;28;20049;-83
2022/03/04 03:12:38;;;;;;;13.45;10.32;;;;;;;19.30;34.92;100849.06;5073833;28;20049;-83
2022/03/04 03:15:07;;;;;;;13.18;11.88;;;;;;;19.29;34.76;100845.53;5074176;28;20051;-82
2022/03/04 03:17:35;;;;;;;12.98;11.68;;;;;;;19.30;34.74;100852.59;5072630;28;20049;-82
2022/03/04 03:20:05;;;;;;;12.23;10.90;;;;;;;19.32;34.80;100852.47;5072639;28;20048;-82
2022/03/04 03:22:33;;;;;;;12.25;10.93;;;;;;;19.31;34.91;100858.81;5056109;28;20053;-82
2022/03/04 03:25:00;;;;;;;12.27;10.98;;;;;;;19.30;34.97;100857.13;5073939;28;20052;-82
2022/03/04 03:27:27;;;;;;;12.07;10.88;;;;;;;19.31;35.00;100864.19;5072767;28;20040;-82
2022/03/04 03:29:55;;;;;;;11.57;10.38;;;;;;;19.30;35.00;100870.56;5072340;28;20052;-82
2022/03/04 03:32:22;;;;;;;13.23;10.68;;;;;;;19.29;35.20;100869.72;5073769;28;20044;-83
2022/03/04 03:34:50;;;;;;;11.32;10.13;;;;;;;19.30;35.17;100870.56;5073541;28;20044;-83
2022/03/04 03:37:17;;;;;;;12.07;10.88;;;;;;;19.29;35.08;100876.91;5073641;28;20041;-82
2022/03/04 03:39:44;;;;;;;13.75;11.05;;;;;;;19.29;34.99;100882.28;5073392;28;20056;-82
2022/03/04 03:42:12;;;;;;;14.02;11.23;;;;;;;19.27;34.83;100883.25;5073133;28;20056;-84
2022/03/04 03:44:39;;;;;;;12.45;11.25;;;;;;;19.29;34.96;100887.66;5073483;28;20063;-84
2022/03/04 03:47:09;;;;;;;12.85;11.52;;;;;;;19.30;34.92;100894.72;5073312;28;20055;-83
2022/03/04 03:49:38;;;;;;;12.07;10.88;;;;;;;19.30;34.86;100894.72;5073963;28;20050;-84
2022/03/04 03:52:06;;;;;;;11.57;10.25;;;;;;;19.30;34.87;100900.94;5073457;28;20044;-84
2022/03/04 03:54:34;;;;;;;12.68;11.38;;;;;;;19.31;34.93;100891.88;5073395;28;20115;-84
2022/03/04 03:57:01;;;;;;;11.60;10.50;;;;;;;19.29;34.89;100893.88;5073602;28;20503;-83
2022/03/04 03:59:29;;;;;;;12.13;10.93;;;;;;;19.30;34.81;100897.41;5074003;28;20369;-83
2022/03/04 04:01:56;;;;;;;14.48;11.05;;;;;;;19.30;34.94;100892.03;5072845;28;20052;-83
2022/03/04 04:04:24;;;;;;;12.75;11.40;;;;;;;19.31;34.89;100896.41;5073234;28;20041;-83
2022/03/04 04:06:51;;;;;;;11.88;10.70;;;;;;;19.30;34.85;100900.94;5073149;28;20040;-83
2022/03/04 04:09:18;;;;;;;12.40;10.93;;;;;;;19.31;34.82;100912.50;5073742;28;20048;-83
2022/03/04 04:11:46;;;;;;;11.82;10.63;;;;;;;19.31;34.91;100907.16;5072995;28;20049;-83
2022/03/04 04:14:13;;;;;;;12.07;10.75;;;;;;;19.32;34.94;100911.53;5073353;28;20107;-83
2022/03/04 04:16:40;;;;;;;11.20;10.20;;;;;;;19.32;34.91;100909.69;5073343;28;20381;-83
2022/03/04 04:19:08;;;;;;;12.82;11.48;;;;;;;19.32;35.24;100908.84;5073050;28;20045;-83
2022/03/04 04:21:35;;;;;;;12.02;10.82;;;;;;;19.31;35.01;100908.00;5073236;28;20051;-83
2022/03/04 04:24:03;;;;;;;11.77;10.50;;;;;;;19.32;35.01;100908.84;5071642;28;20053;-83
2022/03/04 04:26:31;;;;;;;12.82;11.23;;;;;;;19.31;35.00;100902.63;5073117;28;20168;-83
2022/03/04 04:28:59;;;;;;;12.68;11.35;;;;;;;19.30;35.12;100895.56;5072982;28;20048;-83
2022/03/04 04:31:26;;;;;;;12.40;11.20;;;;;;;19.30;35.14;100887.50;5072897;28;20040;-83
2022/03/04 04:33:54;;;;;;;12.77;11.25;;;;;;;19.31;35.09;100885.66;5073250;28;20392;-83
2022/03/04 04:36:21;;;;;;;10.88;9.77;;;;;;;19.31;35.23;100880.28;5073240;28;20048;-83
2022/03/04 04:38:49;;;;;;;12.52;10.43;;;;;;;19.31;35.13;100875.78;5073230;28;20504;-84
2022/03/04 04:41:17;;;;;;;11.68;10.57;;;;;;;19.31;35.15;100883.81;5072860;28;20041;-84
2022/03/04 04:43:45;;;;;;;12.27;10.25;;;;;;;19.31;35.32;100880.28;5072998;28;20056;-84
2022/03/04 04:46:13;;;;;;;12.50;10.98;;;;;;;19.31;35.47;100882.97;5073479;28;20468;-84
2022/03/04 04:48:40;;;;;;;11.68;10.52;;;;;;;19.30;35.22;100883.97;5073110;28;20052;-84
2022/03/04 04:51:07;;;;;;;12.07;9.90;;;;;;;19.29;35.46;100883.13;5073547;28;20052;-84
2022/03/04 04:53:38;;;;;;;11.93;10.27;;;;;;;19.29;35.45;100868.84;5073000;28;20416;-84
2022/03/04 04:56:05;;;;;;;11.63;10.40;;;;;;;19.29;35.37;100850.06;5072806;28;20048;-84
2022/03/04 04:58:33;;;;;;;13.35;10.07;;;;;;;19.29;35.42;100828.59;5073861;28;20041;-85
2022/03/04 05:01:01;;;;;;;11.90;9.70;;;;;;;19.29;35.49;100828.59;5055350;28;20056;-84
2022/03/04 05:03:29;;;;;;;11.38;10.18;;;;;;;19.29;35.44;100856.28;5073145;28;20372;-84
2022/03/04 05:05:57;;;;;;;11.68;10.57;;;;;;;19.29;35.34;100864.34;5071722;28;20056;-84
2022/03/04 05:08:26;;;;;;;12.02;10.82;;;;;;;19.30;35.36;100875.91;5072691;28;20055;-84
2022/03/04 05:10:56;;;;;;;14.75;10.75;;;;;;;19.29;35.09;100885.81;5072987;28;20045;-84
2022/03/04 05:13:24;;;;;;;11.73;9.77;;;;;;;19.29;35.35;100882.28;5072923;28;20052;-83
2022/03/04 05:15:51;;;;;;;13.30;10.63;;;;;;;19.29;35.37;100884.97;5075556;28;20052;-84
2022/03/04 05:18:19;;;;;;;12.13;10.93;;;;;;;19.29;35.40;100879.59;5074795;28;20496;-83
2022/03/04 05:20:46;;;;;;;13.25;10.88;;;;;;;19.29;35.35;100877.75;5076254;28;20044;-83
2022/03/04 05:23:58;;;;;;;11.25;10.15;;;;;;;19.29;35.55;100874.22;5076484;28;20483;-83
2022/03/04 05:26:01;;;;;;;12.40;10.23;;;;;;;19.30;35.40;100873.25;5074852;28;20135;-83
2022/03/04 05:28:28;;;;;;;12.48;9.68;;;;;;;19.30;35.55;100859.81;5076321;28;20040;-83
2022/03/04 05:30:56;;;;;;;45.70;11.20;;;;;;;19.30;35.61;100862.50;5074473;28;20053;-82
2022/03/04 05:33:23;;;;;;;11.68;10.50;;;;;;;19.29;35.45;100855.44;5074915;28;20480;-83
2022/03/04 05:35:51;;;;;;;10.35;9.38;;;;;;;19.30;35.53;100854.44;5075678;28;20102;-83
2022/03/04 05:38:18;;;;;;;11.00;9.90;;;;;;;19.30;35.85;100855.28;5075541;28;20044;-83
2022/03/04 05:40:46;;;;;;;11.18;10.07;;;;;;;19.30;35.74;100857.13;5076110;28;20484;-83
2022/03/04 05:43:13;;;;;;;10.43;9.13;;;;;;;19.30;35.77;100859.81;5075558;28;20430;-82
2022/03/04 05:45:40;;;;;;;10.80;9.77;;;;;;;19.30;35.70;100867.88;5075520;28;20037;-82
2022/03/04 05:48:08;;;;;;;10.30;9.18;;;;;;;19.30;35.87;100862.50;5075416;28;20036;-83
2022/03/04 05:50:35;;;;;;;10.50;9.18;;;;;;;19.30;35.88;100866.03;5076226;28;20055;-82
2022/03/04 05:53:02;;;;;;;10.70;9.60;;;;;;;19.30;35.86;100873.25;5075116;28;20055;-82
2022/03/04 05:55:30;;;;;;;13.45;10.23;;;;;;;19.30;35.95;100871.41;5075934;28;20048;-82
2022/03/04 05:57:57;;;;;;;11.02;9.55;;;;;;;19.31;35.89;100872.25;5076113;28;20380;-81
2022/03/04 06:00:26;;;;;;;9.65;8.75;;;;;;;19.30;35.90;100879.44;5075729;28;20045;-82
2022/03/04 06:02:53;;;;;;;11.32;10.10;;;;;;;19.31;35.88;100877.63;5074360;28;20055;-81
2022/03/04 06:05:21;;;;;;;9.95;8.95;;;;;;;19.31;35.96;100867.72;5075115;28;20045;-82
2022/03/04 06:07:48;;;;;;;10.45;9.40;;;;;;;19.31;35.99;100880.28;5074943;28;20041;-84
2022/03/04 06:10:16;;;;;;;10.27;9.27;;;;;;;19.31;36.06;100880.28;5074976;28;20063;-82
2022/03/04 06:12:43;;;;;;;9.98;8.98;;;;;;;19.30;36.00;100871.41;5074774;28;20507;-82
2022/03/04 06:15:11;;;;;;;10.43;9.25;;;;;;;19.30;36.01;100875.91;5075573;28;20048;-82
2022/03/04 06:17:44;;;;;;;10.27;9.27;;;;;;;19.29;35.99;100875.06;5074968;28;20052;-82
2022/03/04 06:20:12;;;;;;;10.30;9.20;;;;;;;19.29;36.11;100883.13;5075108;28;20055;-82
2022/03/04 06:22:39;;;;;;;10.13;9.00;;;;;;;19.30;36.05;100890.19;5074779;28;20041;-82
2022/03/04 06:25:06;;;;;;;11.13;9.50;;;;;;;19.29;35.94;100893.00;5074993;28;20052;-83
2022/03/04 06:27:34;;;;;;;9.75;8.70;;;;;;;19.29;35.97;100895.69;5074566;28;20043;-83
2022/03/04 06:30:04;;;;;;;9.90;8.80;;;;;;;19.27;36.18;100902.03;5073685;28;20056;-83
2022/03/04 06:32:31;;;;;;;10.32;9.20;;;;;;;19.27;36.00;100902.03;5074829;28;20049;-83
2022/03/04 06:34:58;;;;;;;9.07;8.27;;;;;;;19.26;36.11;100908.38;5075027;28;20491;-82
2022/03/04 06:37:26;;;;;;;10.75;9.63;;;;;;;19.27;36.04;100910.06;5074347;28;20062;-82
2022/03/04 06:39:53;;;;;;;10.23;8.48;;;;;;;19.26;36.03;100908.38;5074355;28;20079;-81
2022/03/04 06:42:20;;;;;;;10.25;8.32;;;;;;;19.26;36.15;100913.75;5074328;28;20040;-81
2022/03/04 06:44:48;;;;;;;9.40;8.50;;;;;;;19.26;36.09;100910.22;5074800;28;20052;-82
2022/03/04 06:47:15;;;;;;;9.20;8.25;;;;;;;19.25;36.16;100916.56;5074098;28;20059;-82
2022/03/04 06:49:42;;;;;;;10.50;9.00;;;;;;;19.26;36.14;100926.31;5073706;28;20048;-82
2022/03/04 06:52:10;;;;;;;9.52;8.18;;;;;;;19.25;36.21;100922.78;5073926;28;20048;-83
2022/03/04 06:54:39;;;;;;;9.18;8.27;;;;;;;19.25;36.22;100922.78;5073811;28;20055;-83
2022/03/04 06:57:06;;;;;;;9.80;8.90;;;;;;;19.25;36.24;100924.63;5073691;28;20048;-83
2022/03/04 06:59:34;;;;;;;10.02;7.97;;;;;;;19.25;36.27;100924.63;5074998;28;20123;-83
2022/03/04 07:02:01;;;;;;;10.10;9.00;;;;;;;19.25;36.15;100930.00;5073832;28;20485;-85
2022/03/04 07:04:29;;;;;;;9.20;8.25;;;;;;;19.25;36.12;100933.53;5072749;28;20048;-84
2022/03/04 07:06:56;;;;;;;10.90;9.50;;;;;;;19.25;36.13;100921.94;5073801;28;20048;-84
2022/03/04 07:09:24;;;;;;;10.05;9.00;;;;;;;19.25;36.19;100925.47;5073017;28;20048;-84
2022/03/04 07:11:54;;;;;;;10.00;9.00;;;;;;;19.25;36.15;100921.94;5074034;28;20049;-84
2022/03/04 07:14:21;;;;;;;9.63;8.63;;;;;;;19.25;36.20;100925.47;5073661;28;20044;-84
2022/03/04 07:16:48;;;;;;;9.23;8.32;;;;;;;19.25;36.25;100922.78;5073609;28;20044;-82
2022/03/04 07:19:15;;;;;;;11.70;9.02;;;;;;;19.24;36.27;100923.78;5074045;28;20480;-83
2022/03/04 07:21:43;;;;;;;11.05;8.70;;;;;;;19.25;36.29;100921.94;5073463;28;20071;-83
2022/03/04 07:24:10;;;;;;;9.40;8.32;;;;;;;19.23;36.25;100924.75;5074223;28;20051;-83
2022/03/04 07:26:38;;;;;;;11.10;8.77;;;;;;;19.25;36.42;100924.63;5073411;28;20495;-84
2022/03/04 07:29:05;;;;;;;9.10;8.18;;;;;;;19.25;36.36;100935.38;5074282;28;20041;-82
2022/03/04 07:31:32;;;;;;;11.15;8.73;;;;;;;19.24;36.34;100929.16;5075032;28;20056;-82
2022/03/04 07:33:59;;;;;;;10.48;8.52;;;;;;;19.24;36.40;100937.19;5075476;28;20057;-85
2022/03/04 07:36:27;;;;;;;10.35;9.30;;;;;;;19.25;36.56;100941.59;5073315;28;20057;-83
2022/03/04 07:38:55;;;;;;;10.63;8.88;;;;;;;19.25;36.41;100941.59;5073208;28;20048;-81
2022/03/04 07:41:22;;;;;;;10.07;9.07;;;;;;;19.23;36.75;100943.53;5073162;28;20095;-82
2022/03/04 07:43:50;;;;;;;10.05;8.48;;;;;;;19.25;36.57;100946.09;5073971;28;20049;-81
2022/03/04 07:46:19;;;;;;;9.25;8.25;;;;;;;19.25;36.56;100952.31;5073514;28;20040;-82
2022/03/04 07:48:46;;;;;;;10.93;9.30;;;;;;;19.24;36.59;100947.94;5071423;28;20362;-82
2022/03/04 07:51:13;;;;;;;14.15;8.95;;;;;;;19.23;36.57;100951.56;5073469;28;20504;-82
2022/03/04 07:53:41;;;;;;;10.82;8.13;;;;;;;19.24;36.47;100952.44;5073178;28;20524;-82
2022/03/04 07:56:09;;;;;;;10.80;9.57;;;;;;;19.23;36.48;100958.78;5073910;28;20044;-82
2022/03/04 07:58:37;;;;;;;10.05;8.82;;;;;;;19.23;36.80;100958.78;5073837;28;20036;-82
2022/03/04 08:01:05;;;;;;;10.20;8.43;;;;;;;19.22;38.15;100963.31;5073223;28;20048;-82
2022/03/04 08:03:47;;;;;;;11.03;9.57;;;;;;;19.21;38.58;100958.06;5073634;28;20052;-83
2022/03/04 08:06:15;;;;;;;10.05;9.05;;;;;;;19.19;38.06;100957.34;5073707;28;20044;-82
2022/03/04 08:08:43;;;;;;;13.88;12.48;;;;;;;19.18;37.65;100958.31;5072667;28;20041;-83
2022/03/04 08:11:10;;;;;;;12.45;11.25;;;;;;;19.17;37.77;100965.53;5073067;28;20063;-83
2022/03/04 08:13:37;;;;;;;15.43;12.82;;;;;;;19.16;37.77;100955.78;5073028;28;20059;-83
2022/03/04 08:16:05;;;;;;;15.02;12.65;;;;;;;19.16;37.63;100958.47;5073238;28;20376;-83
2022/03/04 08:18:32;;;;;;;14.10;12.70;;;;;;;19.15;37.53;100962.09;5073123;28;20397;-83
2022/03/04 08:21:00;;;;;;;14.30;12.05;;;;;;;19.16;37.73;100965.63;5072848;28;20056;-83
2022/03/04 08:23:28;;;;;;;13.75;12.20;;;;;;;19.14;37.44;100963.09;5073534;28;20047;-83
2022/03/04 08:25:57;;;;;;;15.18;12.23;;;;;;;19.15;37.38;100962.09;5073457;28;20044;-83
2022/03/04 08:28:24;;;;;;;14.40;12.55;;;;;;;19.14;37.32;100965.78;5072827;28;20099;-83
2022/03/04 08:30:53;;;;;;;11.98;10.88;;;;;;;19.14;37.34;100968.47;5072686;28;20046;-83
2022/03/04 08:33:21;;;;;;;14.13;12.68;;;;;;;19.14;37.16;100964.91;5072894;28;20047;-83
2022/03/04 08:35:48;;;;;;;14.30;11.77;;;;;;;19.13;37.03;100969.44;5072686;28;20040;-83
2022/03/04 08:38:16;;;;;;;14.57;13.07;;;;;;;19.13;37.16;100969.44;5072622;28;20055;-82
2022/03/04 08:40:43;;;;;;;13.40;12.00;;;;;;;19.13;37.00;100969.44;5072820;28;20048;-83
2022/03/04 08:43:11;;;;;;;13.35;12.07;;;;;;;19.13;37.21;100969.44;5062085;28;20512;-82
2022/03/04 08:45:38;;;;;;;16.75;13.15;;;;;;;19.13;36.94;100972.13;5052472;28;20045;-83
2022/03/04 08:48:07;;;;;;;13.70;12.30;;;;;;;19.14;37.03;100973.81;5052747;28;20446;-83
2022/03/04 08:50:34;;;;;;;14.07;12.02;;;;;;;19.13;36.94;100974.81;5056279;28;20385;-84
2022/03/04 08:53:07;;;;;;;13.98;12.50;;;;;;;19.13;36.87;100976.66;5056392;28;20053;-84
2022/03/04 08:55:35;;;;;;;13.30;11.23;;;;;;;19.13;36.95;100969.44;5071484;28;20049;-83
2022/03/04 08:58:02;;;;;;;15.15;13.55;;;;;;;19.13;36.98;100977.50;5076710;28;20056;-83
2022/03/04 09:00:32;;;;;;;13.98;12.57;;;;;;;19.14;36.82;100964.91;5076314;28;20051;-83
2022/03/04 09:02:59;;;;;;;14.55;11.85;;;;;;;19.15;36.93;100975.53;5076409;28;20044;-86
2022/03/04 09:05:27;;;;;;;13.45;12.02;;;;;;;19.16;37.10;100971.00;5076440;28;20040;-84
2022/03/04 09:07:54;;;;;;;12.52;11.23;;;;;;;19.15;37.03;100967.47;5076140;28;20407;-83
2022/03/04 09:10:22;;;;;;;13.00;10.48;;;;;;;19.16;37.00;100963.81;5074839;28;20480;-83
2022/03/04 09:12:49;;;;;;;11.32;10.13;;;;;;;19.16;36.96;100962.94;5075802;28;20049;-83
2022/03/04 09:15:16;;;;;;;15.13;11.32;;;;;;;19.17;36.85;100968.22;5075025;28;20056;-84
2022/03/04 09:17:44;;;;;;;12.40;10.65;;;;;;;19.16;36.89;100963.81;5076065;28;20511;-83
2022/03/04 09:20:14;;;;;;;11.20;10.10;;;;;;;19.17;36.91;100962.00;5076161;28;20380;-83
2022/03/04 09:22:42;;;;;;;11.50;10.10;;;;;;;19.18;36.94;100967.22;5076006;28;20044;-83
2022/03/04 09:25:09;;;;;;;10.73;9.07;;;;;;;19.16;36.92;100963.81;5074463;28;20056;-83
2022/03/04 09:27:37;;;;;;;12.57;9.40;;;;;;;19.16;36.99;100963.81;5075312;28;20056;-83
2022/03/04 09:30:05;;;;;;;11.18;9.23;;;;;;;19.17;36.80;100962.84;5076893;28;20052;-82
2022/03/04 09:32:32;;;;;;;10.05;8.63;;;;;;;19.18;37.20;100958.31;5074986;28;20052;-82
2022/03/04 09:35:00;;;;;;;9.23;8.32;;;;;;;19.19;36.96;100960.00;5074691;28;20061;-82
2022/03/04 09:37:27;;;;;;;10.88;8.57;;;;;;;19.18;37.02;100961.84;5075985;28;20044;-82
2022/03/04 09:39:55;;;;;;;8.82;8.02;;;;;;;19.18;37.05;100961.00;5075607;28;20045;-82
2022/03/04 09:42:23;;;;;;;8.95;8.05;;;;;;;19.18;37.04;100961.84;5075749;28;20048;-83
2022/03/04 09:44:50;;;;;;;8.88;7.95;;;;;;;19.19;36.86;100968.06;5076790;28;20049;-83
2022/03/04 09:47:21;;;;;;;10.23;8.60;;;;;;;19.19;36.88;100960.88;5077671;28;20048;-82
2022/03/04 09:49:51;;;;;;;9.13;7.78;;;;;;;19.19;36.97;100968.91;5077059;28;20044;-82
2022/03/04 09:52:19;;;;;;;8.77;7.63;;;;;;;19.20;36.86;100969.75;5076344;28;20080;-82
2022/03/04 09:54:52;;;;;;;8.98;8.07;;;;;;;19.20;36.92;100969.75;5068469;28;20504;-82
2022/03/04 09:57:20;;;;;;;10.00;9.00;;;;;;;19.19;36.71;100973.44;5054046;28;20083;-82
2022/03/04 09:59:47;;;;;;;8.52;7.63;;;;;;;19.19;36.98;100971.59;5054872;28;20041;-82
2022/03/04 10:02:15;;;;;;;9.23;8.23;;;;;;;19.19;36.97;100968.91;5056395;28;20041;-82
2022/03/04 10:04:43;;;;;;;8.38;7.47;;;;;;;19.19;36.97;100968.06;5055950;28;20045;-81
2022/03/04 10:07:12;;;;;;;9.48;8.52;;;;;;;19.19;37.03;100965.38;5055026;28;20489;-82
2022/03/04 10:09:47;;;;;;;8.30;7.47;;;;;;;19.19;37.04;100966.22;5056023;28;20048;-82
2022/03/04 10:12:17;;;;;;;8.38;7.18;;;;;;;19.20;36.91;100970.66;5055099;28;20053;-82
2022/03/04 10:15:04;;;;;;;8.15;7.15;;;;;;;19.20;36.91;100964.41;5056059;28;20477;-82
2022/03/04 10:17:34;;;;;;;7.93;7.15;;;;;;;19.19;36.97;100958.19;5054178;28;20416;-82
2022/03/04 10:20:08;;;;;;;7.13;6.30;;;;;;;19.19;36.87;100965.38;5054890;28;20045;-82
2022/03/04 10:22:42;;;;;;;9.13;7.40;;;;;;;19.19;36.83;100971.59;5054230;28;20048;-83
2022/03/04 10:25:21;;;;;;;7.80;6.40;;;;;;;19.20;36.96;100959.03;5056408;28;20056;-82
2022/03/04 10:27:48;;;;;;;8.52;6.60;;;;;;;19.19;36.99;100963.56;5055640;28;20048;-82
2022/03/04 10:30:27;;;;;;;10.88;6.55;;;;;;;19.19;37.02;100963.56;5055598;28;20055;-82
2022/03/04 10:33:08;;;;;;;8.48;7.20;;;;;;;19.19;36.84;100958.19;5055497;28;20048;-82
2022/03/04 10:35:38;;;;;;;8.02;6.93;;;;;;;19.19;36.88;100957.34;5055561;28;20041;-82
2022/03/04 10:38:06;;;;;;;8.10;6.63;;;;;;;19.20;37.00;100959.03;5055717;28;20056;-82
2022/03/04 10:40:42;;;;;;;8.02;7.00;;;;;;;19.20;36.93;100957.22;5057262;28;20048;-82
2022/03/04 10:43:12;;;;;;;8.75;7.00;;;;;;;19.19;36.97;100951.97;5063483;28;20048;-81
2022/03/04 10:45:42;;;;;;;6.70;5.95;;;;;;;19.20;36.93;100956.34;5064377;28;20048;-82
2022/03/04 10:48:17;;;;;;;7.18;6.47;;;;;;;19.20;36.83;100953.66;5058521;28;20056;-82
2022/03/04 10:50:46;;;;;;;7.82;7.03;;;;;;;19.20;36.97;100951.84;5054180;28;20378;-82
2022/03/04 10:53:16;;;;;;;7.38;6.68;;;;;;;19.20;36.89;100948.28;5055719;28;20057;-82
2022/03/04 10:55:50;;;;;;;7.38;6.68;;;;;;;19.20;36.74;100946.50;5053459;28;20393;-82
2022/03/04 10:58:20;;;;;;;8.98;7.32;;;;;;;19.20;36.86;100945.59;5053761;28;20052;-81
2022/03/04 11:00:49;;;;;;;7.85;7.07;;;;;;;19.20;36.76;100943.81;5054274;28;20052;-82
2022/03/04 11:03:19;;;;;;;15.27;12.38;;;;;;;19.20;36.24;100946.50;5054253;28;20485;-82
2022/03/04 11:05:48;;;;;;;17.63;15.88;;;;;;;19.15;35.57;100942.47;5054115;28;20381;-82
2022/03/04 11:08:17;;;;;;;8.27;7.38;;;;;;;19.14;36.60;100933.56;5054169;28;20052;-82
2022/03/04 11:10:44;;;;;;;9.07;8.18;;;;;;;19.13;36.66;100942.59;5054439;28;20393;-82
2022/03/04 11:13:12;;;;;;;9.13;8.15;;;;;;;19.14;36.56;100933.56;5053024;28;20060;-82
2022/03/04 11:15:42;;;;;;;8.38;6.80;;;;;;;19.15;36.46;100929.91;5052636;28;20060;-82
2022/03/04 11:18:12;;;;;;;7.82;7.05;;;;;;;19.15;36.58;100931.72;5053958;28;20055;-82